createdAt,value
2018-02-07T00:00:38.690Z,1002.63
2018-02-07T00:01:38.760Z,1002.64
2018-02-07T00:02:38.694Z,1002.65
2018-02-07T00:03:38.761Z,1002.63
2018-02-07T00:04:38.694Z,1002.65
2018-02-07T00:05:38.762Z,1002.65
2018-02-07T00:06:38.695Z,1002.67
2018-02-07T00:07:38.702Z,1002.69
2018-02-07T00:08:38.765Z,1002.68
2018-02-07T00:09:38.700Z,1002.68
2018-02-07T00:10:38.767Z,1002.67
2018-02-07T00:11:38.700Z,1002.66
2018-02-07T00:12:38.767Z,1002.63
2018-02-07T00:13:38.765Z,1002.62
2018-02-07T00:14:38.700Z,1002.61
2018-02-07T00:15:38.773Z,1002.62
2018-02-07T00:16:38.772Z,1002.63
2018-02-07T00:17:38.704Z,1002.61
2018-02-07T00:18:38.769Z,1002.65
2018-02-07T00:19:38.770Z,1002.64
2018-02-07T00:20:38.738Z,1002.61
2018-02-07T00:21:38.704Z,1002.64
2018-02-07T00:22:38.771Z,1002.66
2018-02-07T00:23:38.772Z,1002.61
2018-02-07T00:24:38.712Z,1002.64
2018-02-07T00:25:38.766Z,1002.63
2018-02-07T00:26:38.758Z,1002.62
2018-02-07T00:27:38.860Z,1002.61
2018-02-07T00:28:38.682Z,1002.64
2018-02-07T00:29:38.679Z,1002.61
2018-02-07T00:30:38.762Z,1002.62
2018-02-07T00:31:38.774Z,1002.65
2018-02-07T00:32:38.780Z,1002.58
2018-02-07T00:33:38.679Z,1002.61
2018-02-07T00:34:38.674Z,1002.60
2018-02-07T00:35:38.713Z,1002.59
2018-02-07T00:36:38.678Z,1002.62
2018-02-07T00:37:38.677Z,1002.63
2018-02-07T00:38:38.772Z,1002.61
2018-02-07T00:39:38.771Z,1002.60
2018-02-07T00:40:38.687Z,1002.59
2018-02-07T00:41:38.733Z,1002.58
2018-02-07T00:42:38.739Z,1002.60
2018-02-07T00:43:38.741Z,1002.59
2018-02-07T00:44:38.739Z,1002.62
2018-02-07T00:45:38.773Z,1002.63
2018-02-07T00:46:38.683Z,1002.60
2018-02-07T00:47:38.651Z,1002.64
2018-02-07T00:48:38.651Z,1002.63
2018-02-07T00:49:38.720Z,1002.61
2018-02-07T00:50:38.754Z,1002.60
2018-02-07T00:51:38.724Z,1002.67
2018-02-07T00:52:38.778Z,1002.61
2018-02-07T00:53:38.727Z,1002.63
2018-02-07T00:54:38.788Z,1002.64
2018-02-07T00:55:38.698Z,1002.63
2018-02-07T00:56:38.780Z,1002.62
2018-02-07T00:57:38.683Z,1002.66
2018-02-07T00:58:38.784Z,1002.68
2018-02-07T00:59:38.784Z,1002.65
2018-02-07T01:00:38.719Z,1002.70
2018-02-07T01:01:38.794Z,1002.66
2018-02-07T01:02:38.665Z,1002.68
2018-02-07T01:03:38.755Z,1002.70
2018-02-07T01:04:38.704Z,1002.69
2018-02-07T01:05:38.802Z,1002.68
2018-02-07T01:06:38.716Z,1002.70
2018-02-07T01:07:38.789Z,1002.70
2018-02-07T01:08:38.726Z,1002.72
2018-02-07T01:09:38.795Z,1002.74
2018-02-07T01:10:38.755Z,1002.75
2018-02-07T01:11:38.707Z,1002.74
2018-02-07T01:12:38.709Z,1002.77
2018-02-07T01:13:38.674Z,1002.72
2018-02-07T01:14:38.709Z,1002.70
2018-02-07T01:15:38.796Z,1002.72
2018-02-07T01:16:38.765Z,1002.69
2018-02-07T01:17:38.796Z,1002.68
2018-02-07T01:18:38.744Z,1002.72
2018-02-07T01:19:38.728Z,1002.71
2018-02-07T01:20:38.714Z,1002.73
2018-02-07T01:21:38.802Z,1002.74
2018-02-07T01:22:38.710Z,1002.75
2018-02-07T01:23:38.735Z,1002.76
2018-02-07T01:24:38.812Z,1002.80
2018-02-07T01:25:38.746Z,1002.81
2018-02-07T01:26:38.750Z,1002.75
2018-02-07T01:27:38.814Z,1002.83
2018-02-07T01:28:38.751Z,1002.80
2018-02-07T01:29:38.814Z,1002.82
2018-02-07T01:30:38.750Z,1002.82
2018-02-07T01:31:38.815Z,1002.82
2018-02-07T01:32:38.752Z,1002.79
2018-02-07T01:33:38.816Z,1002.82
2018-02-07T01:34:38.877Z,1002.82
2018-02-07T01:35:38.738Z,1002.84
2018-02-07T01:36:38.740Z,1002.84
2018-02-07T01:37:38.735Z,1002.85
2018-02-07T01:38:38.811Z,1002.86
2018-02-07T01:39:38.742Z,1002.83
2018-02-07T01:40:38.695Z,1002.87
2018-02-07T01:41:38.740Z,1002.81
2018-02-07T01:42:38.782Z,1002.83
2018-02-07T01:43:38.823Z,1002.87
2018-02-07T01:44:38.758Z,1002.89
2018-02-07T01:45:38.884Z,1002.90
2018-02-07T01:46:38.826Z,1002.92
2018-02-07T01:47:38.822Z,1002.98
2018-02-07T01:48:38.766Z,1002.97
2018-02-07T01:49:38.828Z,1002.94
2018-02-07T01:50:38.763Z,1002.96
2018-02-07T01:51:38.836Z,1002.97
2018-02-07T01:52:38.719Z,1002.96
2018-02-07T01:53:38.764Z,1002.97
2018-02-07T01:54:38.768Z,1002.99
2018-02-07T01:55:38.758Z,1003.02
2018-02-07T01:56:38.783Z,1003.01
2018-02-07T01:57:38.700Z,1003.01
2018-02-07T01:58:38.764Z,1003.05
2018-02-07T01:59:38.782Z,1003.03
2018-02-07T02:00:38.765Z,1003.00
2018-02-07T02:01:38.726Z,1003.00
2018-02-07T02:02:38.706Z,1002.98
2018-02-07T02:03:38.814Z,1002.95
2018-02-07T02:04:38.733Z,1002.97
2018-02-07T02:05:38.725Z,1002.94
2018-02-07T02:06:38.789Z,1002.92
2018-02-07T02:07:38.762Z,1002.94
2018-02-07T02:08:38.827Z,1002.98
2018-02-07T02:09:38.743Z,1002.93
2018-02-07T02:10:38.780Z,1002.94
2018-02-07T02:11:38.722Z,1002.93
2018-02-07T02:12:38.831Z,1002.92
2018-02-07T02:13:38.744Z,1002.92
2018-02-07T02:14:38.843Z,1002.90
2018-02-07T02:15:38.841Z,1002.88
2018-02-07T02:16:38.823Z,1002.85
2018-02-07T02:17:38.842Z,1002.83
2018-02-07T02:18:38.798Z,1002.87
2018-02-07T02:19:38.775Z,1002.83
2018-02-07T02:20:38.847Z,1002.83
2018-02-07T02:21:38.843Z,1002.81
2018-02-07T02:22:38.783Z,1002.79
2018-02-07T02:23:38.867Z,1002.77
2018-02-07T02:24:38.839Z,1002.78
2018-02-07T02:25:38.770Z,1002.73
2018-02-07T02:26:38.740Z,1002.78
2018-02-07T02:27:38.839Z,1002.76
2018-02-07T02:28:38.839Z,1002.73
2018-02-07T02:29:38.841Z,1002.75
2018-02-07T02:30:38.846Z,1002.73
2018-02-07T02:31:38.846Z,1002.79
2018-02-07T02:32:38.759Z,1002.74
2018-02-07T02:33:38.758Z,1002.76
2018-02-07T02:34:38.851Z,1002.75
2018-02-07T02:35:38.807Z,1002.76
2018-02-07T02:36:38.790Z,1002.74
2018-02-07T02:37:38.855Z,1002.77
2018-02-07T02:38:38.792Z,1002.75
2018-02-07T02:39:38.854Z,1002.77
2018-02-07T02:40:38.795Z,1002.76
2018-02-07T02:41:38.942Z,1002.73
2018-02-07T02:42:38.858Z,1002.74
2018-02-07T02:43:38.791Z,1002.74
2018-02-07T02:44:38.857Z,1002.69
2018-02-07T02:45:38.855Z,1002.68
2018-02-07T02:46:38.793Z,1002.66
2018-02-07T02:47:38.859Z,1002.67
2018-02-07T02:48:38.791Z,1002.67
2018-02-07T02:49:38.863Z,1002.66
2018-02-07T02:50:38.794Z,1002.67
2018-02-07T02:51:38.859Z,1002.66
2018-02-07T02:52:38.859Z,1002.69
2018-02-07T02:53:38.799Z,1002.65
2018-02-07T02:54:38.800Z,1002.66
2018-02-07T02:55:38.822Z,1002.65
2018-02-07T02:56:38.865Z,1002.65
2018-02-07T02:57:38.808Z,1002.65
2018-02-07T02:58:38.868Z,1002.66
2018-02-07T02:59:38.802Z,1002.66
2018-02-07T03:00:38.805Z,1002.64
2018-02-07T03:01:38.807Z,1002.64
2018-02-07T03:02:38.871Z,1002.69
2018-02-07T03:03:38.801Z,1002.72
2018-02-07T03:04:38.869Z,1002.66
2018-02-07T03:05:38.875Z,1002.66
2018-02-07T03:06:38.896Z,1002.63
2018-02-07T03:07:38.875Z,1002.63
2018-02-07T03:08:38.872Z,1002.61
2018-02-07T03:09:38.875Z,1002.59
2018-02-07T03:10:38.810Z,1002.58
2018-02-07T03:11:38.878Z,1002.58
2018-02-07T03:12:38.811Z,1002.58
2018-02-07T03:13:38.877Z,1002.60
2018-02-07T03:14:38.876Z,1002.58
2018-02-07T03:15:38.814Z,1002.60
2018-02-07T03:16:38.878Z,1002.55
2018-02-07T03:17:38.812Z,1002.53
2018-02-07T03:18:38.876Z,1002.57
2018-02-07T03:19:47.215Z,1002.55
2018-02-07T03:20:38.882Z,1002.54
2018-02-07T03:21:38.882Z,1002.52
2018-02-07T03:22:38.838Z,1002.59
2018-02-07T03:23:38.817Z,1002.62
2018-02-07T03:24:38.815Z,1002.60
2018-02-07T03:25:38.946Z,1002.63
2018-02-07T03:26:38.802Z,1002.57
2018-02-07T03:27:38.875Z,1002.63
2018-02-07T03:28:38.771Z,1002.65
2018-02-07T03:29:38.802Z,1002.62
2018-02-07T03:30:38.878Z,1002.61
2018-02-07T03:31:38.877Z,1002.64
2018-02-07T03:32:38.816Z,1002.66
2018-02-07T03:33:38.792Z,1002.67
2018-02-07T03:34:38.847Z,1002.66
2018-02-07T03:35:38.876Z,1002.66
2018-02-07T03:36:38.788Z,1002.63
2018-02-07T03:37:38.873Z,1002.61
2018-02-07T03:38:38.830Z,1002.66
2018-02-07T03:39:38.880Z,1002.67
2018-02-07T03:40:38.869Z,1002.62
2018-02-07T03:41:38.819Z,1002.62
2018-02-07T03:42:38.824Z,1002.60
2018-02-07T03:43:38.759Z,1002.62
2018-02-07T03:44:38.824Z,1002.59
2018-02-07T03:45:38.821Z,1002.63
2018-02-07T03:46:38.768Z,1002.64
2018-02-07T03:47:38.888Z,1002.62
2018-02-07T03:48:38.831Z,1002.62
2018-02-07T03:49:38.883Z,1002.59
2018-02-07T03:50:38.859Z,1002.59
2018-02-07T03:51:38.893Z,1002.63
2018-02-07T03:52:38.786Z,1002.60
2018-02-07T03:53:38.827Z,1002.63
2018-02-07T03:54:38.832Z,1002.57
2018-02-07T03:55:38.839Z,1002.61
2018-02-07T03:56:38.900Z,1002.58
2018-02-07T03:57:38.836Z,1002.61
2018-02-07T03:58:38.905Z,1002.63
2018-02-07T03:59:38.905Z,1002.59
2018-02-07T04:00:38.843Z,1002.62
2018-02-07T04:01:38.905Z,1002.58
2018-02-07T04:02:38.862Z,1002.59
2018-02-07T04:03:38.904Z,1002.61
2018-02-07T04:04:38.910Z,1002.62
2018-02-07T04:05:38.840Z,1002.61
2018-02-07T04:06:38.842Z,1002.59
2018-02-07T04:07:38.907Z,1002.61
2018-02-07T04:08:38.845Z,1002.64
2018-02-07T04:09:38.840Z,1002.64
2018-02-07T04:10:38.844Z,1002.68
2018-02-07T04:11:38.910Z,1002.71
2018-02-07T04:12:38.914Z,1002.73
2018-02-07T04:13:38.917Z,1002.71
2018-02-07T04:14:38.849Z,1002.74
2018-02-07T04:15:38.821Z,1002.76
2018-02-07T04:16:38.862Z,1002.75
2018-02-07T04:17:38.817Z,1002.75
2018-02-07T04:18:38.816Z,1002.78
2018-02-07T04:19:38.769Z,1002.78
2018-02-07T04:20:38.821Z,1002.78
2018-02-07T04:21:38.862Z,1002.78
2018-02-07T04:22:38.822Z,1002.80
2018-02-07T04:23:38.872Z,1002.75
2018-02-07T04:24:38.771Z,1002.78
2018-02-07T04:25:38.922Z,1002.81
2018-02-07T04:26:38.856Z,1002.78
2018-02-07T04:27:38.921Z,1002.83
2018-02-07T04:28:38.856Z,1002.87
2018-02-07T04:29:38.921Z,1002.89
2018-02-07T04:30:38.936Z,1002.90
2018-02-07T04:31:38.853Z,1002.89
2018-02-07T04:32:38.936Z,1002.86
2018-02-07T04:33:38.863Z,1002.90
2018-02-07T04:34:38.859Z,1002.88
2018-02-07T04:35:38.908Z,1002.85
2018-02-07T04:36:38.879Z,1002.87
2018-02-07T04:37:38.849Z,1002.84
2018-02-07T04:38:38.816Z,1002.88
2018-02-07T04:39:38.913Z,1002.90
2018-02-07T04:40:38.824Z,1002.88
2018-02-07T04:41:38.859Z,1002.88
2018-02-07T04:42:38.917Z,1002.87
2018-02-07T04:43:38.882Z,1002.84
2018-02-07T04:44:38.916Z,1002.89
2018-02-07T04:45:38.838Z,1002.89
2018-02-07T04:46:38.892Z,1002.88
2018-02-07T04:47:38.836Z,1002.90
2018-02-07T04:48:38.852Z,1002.84
2018-02-07T04:49:38.836Z,1002.90
2018-02-07T04:50:38.929Z,1002.87
2018-02-07T04:51:38.932Z,1002.91
2018-02-07T04:52:38.840Z,1002.90
2018-02-07T04:53:38.837Z,1002.89
2018-02-07T04:54:38.934Z,1002.90
2018-02-07T04:55:38.892Z,1002.87
2018-02-07T04:56:38.855Z,1002.88
2018-02-07T04:57:38.930Z,1002.87
2018-02-07T04:58:38.879Z,1002.89
2018-02-07T04:59:38.927Z,1002.91
2018-02-07T05:00:38.840Z,1002.93
2018-02-07T05:01:38.930Z,1002.89
2018-02-07T05:02:38.846Z,1002.91
2018-02-07T05:03:38.930Z,1002.88
2018-02-07T05:04:38.845Z,1002.92
2018-02-07T05:05:38.896Z,1002.94
2018-02-07T05:06:38.869Z,1002.89
2018-02-07T05:07:38.938Z,1002.90
2018-02-07T05:08:38.931Z,1002.87
2018-02-07T05:09:38.939Z,1002.91
2018-02-07T05:10:38.873Z,1002.88
2018-02-07T05:11:38.853Z,1002.89
2018-02-07T05:12:38.946Z,1002.86
2018-02-07T05:13:38.852Z,1002.88
2018-02-07T05:14:38.904Z,1002.89
2018-02-07T05:15:38.883Z,1002.91
2018-02-07T05:16:38.885Z,1002.91
2018-02-07T05:17:38.954Z,1002.93
2018-02-07T05:18:38.949Z,1002.91
2018-02-07T05:19:38.952Z,1002.95
2018-02-07T05:20:38.886Z,1002.91
2018-02-07T05:21:38.952Z,1002.93
2018-02-07T05:22:38.910Z,1002.93
2018-02-07T05:23:38.973Z,1002.97
2018-02-07T05:24:38.837Z,1002.93
2018-02-07T05:25:38.957Z,1002.93
2018-02-07T05:26:38.957Z,1002.97
2018-02-07T05:27:38.958Z,1003.00
2018-02-07T05:28:38.986Z,1002.99
2018-02-07T05:29:38.960Z,1002.98
2018-02-07T05:30:38.903Z,1003.01
2018-02-07T05:31:38.960Z,1002.99
2018-02-07T05:32:38.961Z,1003.01
2018-02-07T05:33:38.931Z,1003.03
2018-02-07T05:34:38.965Z,1003.03
2018-02-07T05:35:38.919Z,1003.06
2018-02-07T05:36:38.860Z,1003.04
2018-02-07T05:37:38.953Z,1003.03
2018-02-07T05:38:38.899Z,1003.04
2018-02-07T05:39:38.964Z,1003.02
2018-02-07T05:40:38.914Z,1003.04
2018-02-07T05:41:38.961Z,1003.03
2018-02-07T05:42:38.900Z,1003.06
2018-02-07T05:43:38.965Z,1003.05
2018-02-07T05:44:38.904Z,1003.11
2018-02-07T05:45:38.974Z,1003.06
2018-02-07T05:46:38.930Z,1003.10
2018-02-07T05:47:38.927Z,1003.11
2018-02-07T05:48:38.904Z,1003.12
2018-02-07T05:49:38.910Z,1003.12
2018-02-07T05:50:38.908Z,1003.16
2018-02-07T05:51:38.972Z,1003.14
2018-02-07T05:52:38.974Z,1003.17
2018-02-07T05:53:38.911Z,1003.14
2018-02-07T05:54:38.974Z,1003.13
2018-02-07T05:55:38.910Z,1003.12
2018-02-07T05:56:38.862Z,1003.17
2018-02-07T05:57:38.974Z,1003.15
2018-02-07T05:58:38.913Z,1003.12
2018-02-07T05:59:38.981Z,1003.15
2018-02-07T06:00:38.913Z,1003.15
2018-02-07T06:01:38.977Z,1003.18
2018-02-07T06:02:38.918Z,1003.21
2018-02-07T06:03:38.909Z,1003.21
2018-02-07T06:04:38.982Z,1003.23
2018-02-07T06:05:38.879Z,1003.18
2018-02-07T06:06:38.831Z,1003.20
2018-02-07T06:07:38.839Z,1003.18
2018-02-07T06:08:38.927Z,1003.20
2018-02-07T06:09:38.923Z,1003.17
2018-02-07T06:10:38.883Z,1003.18
2018-02-07T06:11:38.882Z,1003.16
2018-02-07T06:12:38.886Z,1003.13
2018-02-07T06:13:38.886Z,1003.17
2018-02-07T06:14:38.886Z,1003.17
2018-02-07T06:15:38.890Z,1003.20
2018-02-07T06:16:38.891Z,1003.17
2018-02-07T06:17:38.979Z,1003.17
2018-02-07T06:18:38.983Z,1003.22
2018-02-07T06:19:38.973Z,1003.22
2018-02-07T06:20:38.986Z,1003.22
2018-02-07T06:21:38.977Z,1003.24
2018-02-07T06:22:38.977Z,1003.25
2018-02-07T06:23:38.989Z,1003.26
2018-02-07T06:24:38.909Z,1003.27
2018-02-07T06:25:38.994Z,1003.23
2018-02-07T06:26:38.991Z,1003.29
2018-02-07T06:27:38.953Z,1003.26
2018-02-07T06:28:38.885Z,1003.27
2018-02-07T06:29:38.926Z,1003.28
2018-02-07T06:30:38.999Z,1003.30
2018-02-07T06:31:38.926Z,1003.29
2018-02-07T06:32:38.994Z,1003.28
2018-02-07T06:33:38.931Z,1003.29
2018-02-07T06:34:39.000Z,1003.30
2018-02-07T06:35:38.956Z,1003.32
2018-02-07T06:36:38.954Z,1003.34
2018-02-07T06:37:38.897Z,1003.38
2018-02-07T06:38:38.862Z,1003.41
2018-02-07T06:39:38.867Z,1003.38
2018-02-07T06:40:38.869Z,1003.43
2018-02-07T06:41:38.875Z,1003.47
2018-02-07T06:42:38.870Z,1003.45
2018-02-07T06:43:38.866Z,1003.46
2018-02-07T06:44:38.879Z,1003.50
2018-02-07T06:45:38.994Z,1003.46
2018-02-07T06:46:38.935Z,1003.48
2018-02-07T06:47:38.941Z,1003.48
2018-02-07T06:48:38.940Z,1003.48
2018-02-07T06:49:38.994Z,1003.45
2018-02-07T06:50:38.874Z,1003.47
2018-02-07T06:51:38.868Z,1003.45
2018-02-07T06:52:38.990Z,1003.47
2018-02-07T06:53:38.995Z,1003.42
2018-02-07T06:54:38.995Z,1003.45
2018-02-07T06:55:38.928Z,1003.49
2018-02-07T06:56:39.000Z,1003.51
2018-02-07T06:57:38.938Z,1003.46
2018-02-07T06:58:39.002Z,1003.47
2018-02-07T06:59:38.913Z,1003.46
2018-02-07T07:00:38.935Z,1003.47
2018-02-07T07:01:39.032Z,1003.43
2018-02-07T07:02:39.001Z,1003.47
2018-02-07T07:03:38.903Z,1003.49
2018-02-07T07:04:38.934Z,1003.48
2018-02-07T07:05:39.108Z,1003.48
2018-02-07T07:06:38.948Z,1003.47
2018-02-07T07:07:39.045Z,1003.53
2018-02-07T07:08:39.015Z,1003.50
2018-02-07T07:09:39.020Z,1003.56
2018-02-07T07:10:39.017Z,1003.55
2018-02-07T07:11:39.021Z,1003.56
2018-02-07T07:12:38.960Z,1003.56
2018-02-07T07:13:39.066Z,1003.57
2018-02-07T07:14:38.956Z,1003.58
2018-02-07T07:15:38.849Z,1003.54
2018-02-07T07:16:38.961Z,1003.53
2018-02-07T07:17:38.883Z,1003.55
2018-02-07T07:18:38.945Z,1003.57
2018-02-07T07:19:38.887Z,1003.58
2018-02-07T07:20:38.931Z,1003.56
2018-02-07T07:21:38.903Z,1003.61
2018-02-07T07:22:38.893Z,1003.65
2018-02-07T07:23:38.910Z,1003.69
2018-02-07T07:24:38.870Z,1003.68
2018-02-07T07:25:38.980Z,1003.70
2018-02-07T07:26:39.025Z,1003.74
2018-02-07T07:27:38.976Z,1003.77
2018-02-07T07:28:39.029Z,1003.80
2018-02-07T07:29:39.054Z,1003.78
2018-02-07T07:30:38.965Z,1003.77
2018-02-07T07:31:39.030Z,1003.79
2018-02-07T07:32:38.962Z,1003.82
2018-02-07T07:33:39.033Z,1003.79
2018-02-07T07:34:38.961Z,1003.84
2018-02-07T07:35:38.962Z,1003.86
2018-02-07T07:36:38.961Z,1003.83
2018-02-07T07:37:39.047Z,1003.89
2018-02-07T07:38:38.958Z,1003.88
2018-02-07T07:39:39.030Z,1003.87
2018-02-07T07:40:38.966Z,1003.91
2018-02-07T07:41:38.964Z,1003.96
2018-02-07T07:42:38.949Z,1003.93
2018-02-07T07:43:39.035Z,1003.90
2018-02-07T07:44:38.903Z,1003.91
2018-02-07T07:45:38.964Z,1003.92
2018-02-07T07:46:38.942Z,1003.88
2018-02-07T07:47:38.946Z,1003.89
2018-02-07T07:48:38.914Z,1003.92
2018-02-07T07:49:38.859Z,1003.94
2018-02-07T07:50:38.974Z,1003.97
2018-02-07T07:51:38.967Z,1003.96
2018-02-07T07:52:38.912Z,1003.94
2018-02-07T07:53:38.947Z,1003.94
2018-02-07T07:54:38.908Z,1003.93
2018-02-07T07:55:39.256Z,1003.94
2018-02-07T07:56:38.979Z,1003.93
2018-02-07T07:57:38.935Z,1003.90
2018-02-07T07:58:38.976Z,1003.92
2018-02-07T07:59:39.047Z,1003.93
2018-02-07T08:00:38.988Z,1003.91
2018-02-07T08:01:38.983Z,1003.96
2018-02-07T08:02:39.051Z,1003.91
2018-02-07T08:03:38.978Z,1003.85
2018-02-07T08:04:39.051Z,1003.92
2018-02-07T08:05:39.004Z,1003.88
2018-02-07T08:06:39.051Z,1003.86
2018-02-07T08:07:38.988Z,1003.88
2018-02-07T08:08:39.052Z,1003.84
2018-02-07T08:09:38.990Z,1003.82
2018-02-07T08:10:39.051Z,1003.82
2018-02-07T08:11:39.000Z,1003.84
2018-02-07T08:12:39.058Z,1003.85
2018-02-07T08:13:39.055Z,1003.87
2018-02-07T08:14:39.061Z,1003.84
2018-02-07T08:15:38.993Z,1003.85
2018-02-07T08:16:39.017Z,1003.84
2018-02-07T08:17:39.056Z,1003.81
2018-02-07T08:18:39.024Z,1003.83
2018-02-07T08:19:38.995Z,1003.85
2018-02-07T08:20:39.057Z,1003.84
2018-02-07T08:21:39.070Z,1003.81
2018-02-07T08:22:38.994Z,1003.85
2018-02-07T08:23:39.063Z,1003.84
2018-02-07T08:24:38.993Z,1003.76
2018-02-07T08:25:39.063Z,1003.83
2018-02-07T08:26:39.061Z,1003.80
2018-02-07T08:27:39.061Z,1003.84
2018-02-07T08:28:39.001Z,1003.88
2018-02-07T08:29:39.064Z,1003.85
2018-02-07T08:30:38.999Z,1003.87
2018-02-07T08:31:39.067Z,1003.90
2018-02-07T08:32:39.004Z,1003.90
2018-02-07T08:33:39.069Z,1003.88
2018-02-07T08:34:39.001Z,1003.85
2018-02-07T08:35:38.919Z,1003.89
2018-02-07T08:36:38.967Z,1003.89
2018-02-07T08:37:38.962Z,1003.89
2018-02-07T08:38:38.924Z,1003.92
2018-02-07T08:39:39.001Z,1003.90
2018-02-07T08:40:39.016Z,1003.89
2018-02-07T08:41:39.015Z,1003.90
2018-02-07T08:42:39.018Z,1003.90
2018-02-07T08:43:39.021Z,1003.94
2018-02-07T08:44:38.925Z,1003.95
2018-02-07T08:45:39.077Z,1003.98
2018-02-07T08:46:38.981Z,1003.98
2018-02-07T08:47:38.980Z,1004.02
2018-02-07T08:48:38.981Z,1003.98
2018-02-07T08:49:39.109Z,1004.01
2018-02-07T08:50:39.045Z,1004.00
2018-02-07T08:51:39.044Z,1004.02
2018-02-07T08:52:39.026Z,1004.04
2018-02-07T08:53:38.982Z,1004.02
2018-02-07T08:54:39.062Z,1004.01
2018-02-07T08:55:39.056Z,1004.03
2018-02-07T08:56:38.948Z,1004.04
2018-02-07T08:57:39.065Z,1004.04
2018-02-07T08:58:39.008Z,1004.06
2018-02-07T08:59:39.068Z,1004.08
2018-02-07T09:00:39.034Z,1004.05
2018-02-07T09:01:38.981Z,1004.07
2018-02-07T09:02:39.045Z,1004.04
2018-02-07T09:03:39.009Z,1004.12
2018-02-07T09:04:39.044Z,1004.13
2018-02-07T09:05:38.996Z,1004.15
2018-02-07T09:06:38.995Z,1004.19
2018-02-07T09:07:38.943Z,1004.22
2018-02-07T09:08:38.994Z,1004.24
2018-02-07T09:09:39.006Z,1004.24
2018-02-07T09:10:38.991Z,1004.25
2018-02-07T09:11:38.896Z,1004.29
2018-02-07T09:12:38.896Z,1004.28
2018-02-07T09:13:38.997Z,1004.29
2018-02-07T09:14:38.992Z,1004.25
2018-02-07T09:15:39.023Z,1004.29
2018-02-07T09:16:39.094Z,1004.29
2018-02-07T09:17:39.027Z,1004.26
2018-02-07T09:18:39.092Z,1004.22
2018-02-07T09:19:39.060Z,1004.27
2018-02-07T09:20:39.033Z,1004.26
2018-02-07T09:21:39.096Z,1004.26
2018-02-07T09:22:39.033Z,1004.26
2018-02-07T09:23:39.103Z,1004.24
2018-02-07T09:24:39.029Z,1004.23
2018-02-07T09:25:38.990Z,1004.26
2018-02-07T09:26:38.959Z,1004.29
2018-02-07T09:27:38.997Z,1004.27
2018-02-07T09:28:38.957Z,1004.27
2018-02-07T09:29:38.975Z,1004.31
2018-02-07T09:30:38.991Z,1004.32
2018-02-07T09:31:38.970Z,1004.34
2018-02-07T09:32:38.976Z,1004.34
2018-02-07T09:33:38.989Z,1004.35
2018-02-07T09:34:38.991Z,1004.38
2018-02-07T09:35:39.102Z,1004.38
2018-02-07T09:36:39.052Z,1004.38
2018-02-07T09:37:39.008Z,1004.38
2018-02-07T09:38:39.050Z,1004.40
2018-02-07T09:39:39.011Z,1004.43
2018-02-07T09:40:39.011Z,1004.47
2018-02-07T09:41:39.058Z,1004.47
2018-02-07T09:42:38.989Z,1004.46
2018-02-07T09:43:39.095Z,1004.50
2018-02-07T09:44:39.056Z,1004.53
2018-02-07T09:45:39.111Z,1004.51
2018-02-07T09:46:39.044Z,1004.53
2018-02-07T09:47:39.109Z,1004.50
2018-02-07T09:48:39.046Z,1004.52
2018-02-07T09:49:39.110Z,1004.52
2018-02-07T09:50:39.047Z,1004.54
2018-02-07T09:51:39.123Z,1004.49
2018-02-07T09:52:39.117Z,1004.53
2018-02-07T09:53:39.051Z,1004.48
2018-02-07T09:54:39.117Z,1004.50
2018-02-07T09:55:39.049Z,1004.52
2018-02-07T09:56:39.008Z,1004.52
2018-02-07T09:57:39.048Z,1004.54
2018-02-07T09:58:39.125Z,1004.51
2018-02-07T09:59:39.060Z,1004.55
2018-02-07T10:00:39.118Z,1004.51
2018-02-07T10:01:39.060Z,1004.54
2018-02-07T10:02:39.119Z,1004.51
2018-02-07T10:03:39.121Z,1004.53
2018-02-07T10:04:39.050Z,1004.52
2018-02-07T10:05:39.127Z,1004.56
2018-02-07T10:06:39.053Z,1004.58
2018-02-07T10:07:39.123Z,1004.56
2018-02-07T10:08:39.060Z,1004.54
2018-02-07T10:09:39.124Z,1004.55
2018-02-07T10:10:39.125Z,1004.54
2018-02-07T10:11:39.056Z,1004.55
2018-02-07T10:12:39.163Z,1004.57
2018-02-07T10:13:39.126Z,1004.56
2018-02-07T10:14:39.054Z,1004.56
2018-02-07T10:15:39.142Z,1004.58
2018-02-07T10:16:39.067Z,1004.61
2018-02-07T10:17:39.132Z,1004.59
2018-02-07T10:18:39.059Z,1004.64
2018-02-07T10:19:39.134Z,1004.63
2018-02-07T10:20:39.062Z,1004.66
2018-02-07T10:21:39.133Z,1004.66
2018-02-07T10:22:39.156Z,1004.63
2018-02-07T10:23:39.067Z,1004.65
2018-02-07T10:24:39.136Z,1004.68
2018-02-07T10:25:39.131Z,1004.69
2018-02-07T10:26:39.064Z,1004.64
2018-02-07T10:27:39.134Z,1004.60
2018-02-07T10:28:39.069Z,1004.67
2018-02-07T10:29:39.134Z,1004.62
2018-02-07T10:30:39.135Z,1004.67
2018-02-07T10:31:39.068Z,1004.72
2018-02-07T10:32:39.138Z,1004.68
2018-02-07T10:33:39.227Z,1004.70
2018-02-07T10:34:39.145Z,1004.72
2018-02-07T10:35:39.109Z,1004.71
2018-02-07T10:36:39.111Z,1004.74
2018-02-07T10:37:39.109Z,1004.74
2018-02-07T10:38:39.026Z,1004.72
2018-02-07T10:39:39.026Z,1004.72
2018-02-07T10:40:39.125Z,1004.69
2018-02-07T10:41:39.127Z,1004.77
2018-02-07T10:42:39.010Z,1004.80
2018-02-07T10:43:39.110Z,1004.83
2018-02-07T10:44:39.144Z,1004.87
2018-02-07T10:45:39.145Z,1004.86
2018-02-07T10:46:39.080Z,1004.92
2018-02-07T10:47:39.147Z,1004.89
2018-02-07T10:48:39.080Z,1004.92
2018-02-07T10:49:39.086Z,1004.95
2018-02-07T10:50:39.149Z,1004.97
2018-02-07T10:51:39.081Z,1004.95
2018-02-07T10:52:39.150Z,1004.92
2018-02-07T10:53:39.083Z,1004.97
2018-02-07T10:54:39.170Z,1004.95
2018-02-07T10:55:39.085Z,1004.96
2018-02-07T10:56:39.153Z,1004.97
2018-02-07T10:57:39.085Z,1005.01
2018-02-07T10:58:39.154Z,1005.02
2018-02-07T10:59:39.085Z,1005.01
2018-02-07T11:00:39.153Z,1004.98
2018-02-07T11:01:39.088Z,1004.99
2018-02-07T11:02:39.179Z,1005.01
2018-02-07T11:03:39.089Z,1004.98
2018-02-07T11:04:39.165Z,1004.96
2018-02-07T11:05:39.157Z,1004.95
2018-02-07T11:06:39.123Z,1004.87
2018-02-07T11:07:39.148Z,1004.95
2018-02-07T11:08:39.107Z,1004.97
2018-02-07T11:09:39.141Z,1004.95
2018-02-07T11:10:39.027Z,1004.95
2018-02-07T11:11:39.069Z,1004.98
2018-02-07T11:12:39.124Z,1005.02
2018-02-07T11:13:39.033Z,1005.06
2018-02-07T11:14:39.163Z,1005.00
2018-02-07T11:15:39.071Z,1005.01
2018-02-07T11:16:39.069Z,1005.01
2018-02-07T11:17:39.121Z,1005.01
2018-02-07T11:18:39.100Z,1005.05
2018-02-07T11:19:39.156Z,1005.00
2018-02-07T11:20:39.161Z,1004.99
2018-02-07T11:21:39.140Z,1005.00
2018-02-07T11:22:39.051Z,1005.01
2018-02-07T11:23:39.057Z,1005.00
2018-02-07T11:24:39.056Z,1005.01
2018-02-07T11:25:39.107Z,1005.00
2018-02-07T11:26:39.125Z,1005.08
2018-02-07T11:27:39.157Z,1005.02
2018-02-07T11:28:39.123Z,1005.04
2018-02-07T11:29:39.057Z,1005.05
2018-02-07T11:30:39.163Z,1005.02
2018-02-07T11:31:39.131Z,1005.01
2018-02-07T11:32:39.166Z,1004.98
2018-02-07T11:33:39.188Z,1005.01
2018-02-07T11:34:39.062Z,1004.97
2018-02-07T11:35:39.175Z,1004.98
2018-02-07T11:36:39.190Z,1005.00
2018-02-07T11:37:39.108Z,1004.95
2018-02-07T11:38:39.177Z,1005.01
2018-02-07T11:39:39.115Z,1004.89
2018-02-07T11:40:39.179Z,1004.91
2018-02-07T11:41:39.115Z,1004.87
2018-02-07T11:42:39.178Z,1004.92
2018-02-07T11:43:39.109Z,1004.93
2018-02-07T11:44:39.111Z,1004.93
2018-02-07T11:45:39.185Z,1004.92
2018-02-07T11:46:39.118Z,1004.89
2018-02-07T11:47:39.182Z,1004.90
2018-02-07T11:48:39.111Z,1004.90
2018-02-07T11:49:39.187Z,1004.88
2018-02-07T11:50:39.113Z,1004.92
2018-02-07T11:51:39.184Z,1004.92
2018-02-07T11:52:39.119Z,1004.95
2018-02-07T11:53:39.114Z,1004.92
2018-02-07T11:54:39.191Z,1004.89
2018-02-07T11:55:39.123Z,1004.88
2018-02-07T11:56:39.137Z,1004.89
2018-02-07T11:57:39.071Z,1004.89
2018-02-07T11:58:39.074Z,1004.88
2018-02-07T11:59:39.159Z,1004.90
2018-02-07T12:00:39.179Z,1004.88
2018-02-07T12:01:39.181Z,1004.89
2018-02-07T12:02:39.075Z,1004.92
2018-02-07T12:03:39.071Z,1004.90
2018-02-07T12:04:39.181Z,1004.89
2018-02-07T12:05:39.143Z,1004.90